Time;durP1;ratioP1;P1;durP2;ratioP2;P2;SDS_P1;SDS_P2;PMS_P1;PMS_P2;Temp;Humidity;BMP_temperature;BMP_pressure;BME280_temperature;BME280_humidity;BME280_pressure;Samples;Min_cycle;Max_cycle;Signal;HPM_P1;HPM_P2
2021/07/07 00:00:26;;;;;;;0.60;0.60;;;;;;;23.90;47.74;99577.78;4452172;32;33368;-83
2021/07/07 00:02:54;;;;;;;1.23;1.12;;;;;;;24.06;46.91;99576.28;4439337;32;34364;-81
2021/07/07 00:05:22;;;;;;;1.77;0.90;;;;;;;23.97;47.21;99569.53;4426357;32;34645;-83
2021/07/07 00:07:50;;;;;;;1.87;1.23;;;;;;;24.11;46.53;99576.41;4426556;32;34111;-84
2021/07/07 00:10:21;;;;;;;1.42;1.30;;;;;;;24.04;46.73;99578.41;4439177;32;32795;-83
2021/07/07 00:12:49;;;;;;;0.80;0.70;;;;;;;23.80;47.68;99582.16;4439028;32;33916;-83
2021/07/07 00:15:19;;;;;;;1.33;0.82;;;;;;;23.85;47.73;99579.56;4452067;32;35021;-83
2021/07/07 00:17:48;;;;;;;0.70;0.70;;;;;;;23.97;47.07;99573.09;4439420;32;34531;-83
2021/07/07 00:20:19;;;;;;;2.00;1.20;;;;;;;23.72;48.27;99568.91;4439154;32;32218;-83
2021/07/07 00:22:48;;;;;;;2.20;1.27;;;;;;;23.69;48.35;99566.63;4439650;32;35084;-84
2021/07/07 00:25:16;;;;;;;0.70;0.70;;;;;;;23.65;48.56;99573.59;4451505;32;34542;-84
2021/07/07 00:27:44;;;;;;;0.82;0.70;;;;;;;23.69;48.62;99571.25;4439000;32;34174;-83
2021/07/07 00:30:13;;;;;;;2.05;0.98;;;;;;;23.67;48.96;99566.03;4453239;32;33462;-83
2021/07/07 00:32:41;;;;;;;1.08;1.08;;;;;;;23.60;49.25;99573.47;4426342;32;33056;-81
2021/07/07 00:35:09;;;;;;;1.08;0.88;;;;;;;23.52;49.36;99570.25;4438758;32;33917;-83
2021/07/07 00:37:38;;;;;;;0.90;0.90;;;;;;;23.69;48.12;99566.63;4451458;32;35157;-83
2021/07/07 00:40:06;;;;;;;1.60;1.17;;;;;;;23.65;48.15;99576.31;4426052;32;32012;-83
2021/07/07 00:42:34;;;;;;;1.70;1.02;;;;;;;23.68;48.01;99572.31;4424519;32;32330;-82
2021/07/07 00:45:03;;;;;;;1.17;0.65;;;;;;;23.76;47.47;99567.34;4451603;32;34980;-83
2021/07/07 00:47:31;;;;;;;0.88;0.82;;;;;;;23.73;47.57;99575.13;4451559;32;34149;-83
2021/07/07 00:49:59;;;;;;;1.55;1.40;;;;;;;23.72;47.59;99579.75;4439109;32;33286;-83
2021/07/07 00:52:26;;;;;;;1.40;1.00;;;;;;;23.69;47.74;99573.97;4451439;32;34213;-84
2021/07/07 00:54:55;;;;;;;2.08;1.40;;;;;;;23.55;48.31;99576.06;4439009;32;35781;-83
2021/07/07 00:57:27;;;;;;;1.52;1.42;;;;;;;23.49;48.61;99579.69;4451650;32;35043;-83
2021/07/07 00:59:57;;;;;;;2.60;1.10;;;;;;;23.01;50.44;99578.91;4452117;32;33369;-83
2021/07/07 01:02:26;;;;;;;1.50;1.40;;;;;;;23.34;49.20;99575.75;4451677;32;33401;-84
2021/07/07 01:04:54;;;;;;;1.20;1.10;;;;;;;23.26;50.11;99578.78;4451748;32;34684;-83
2021/07/07 01:07:22;;;;;;;2.28;1.02;;;;;;;23.11;50.52;99575.66;4451486;32;34395;-83
2021/07/07 01:09:49;;;;;;;;;;;;;;;22.93;51.79;99583.81;4439172;32;34220;-83
2021/07/07 01:12:17;;;;;;;0.80;0.80;;;;;;;23.05;50.97;99573.84;4438807;32;33666;-83
2021/07/07 01:14:45;;;;;;;1.95;1.50;;;;;;;23.24;50.38;99570.06;4439180;32;35162;-81
2021/07/07 01:17:13;;;;;;;1.52;1.42;;;;;;;22.98;50.89;99571.22;4426232;32;33056;-83
2021/07/07 01:19:41;;;;;;;1.95;1.00;;;;;;;23.03;50.62;99565.91;4439139;32;33314;-83
2021/07/07 01:22:09;;;;;;;1.05;0.88;;;;;;;22.89;51.46;99567.16;4452810;32;33839;-81
2021/07/07 01:24:37;;;;;;;1.10;1.00;;;;;;;22.97;51.08;99566.84;4438482;32;33846;-83
2021/07/07 01:27:05;;;;;;;0.70;0.70;;;;;;;23.00;50.70;99568.25;4438802;32;34390;-83
2021/07/07 01:29:33;;;;;;;3.72;2.10;;;;;;;22.82;51.38;99571.84;4451724;32;33066;-83
2021/07/07 01:32:01;;;;;;;1.90;0.98;;;;;;;23.12;50.16;99575.41;4451420;32;33785;-83
2021/07/07 01:34:29;;;;;;;1.30;1.20;;;;;;;23.18;49.73;99573.69;4452542;32;34902;-84
2021/07/07 01:36:57;;;;;;;1.60;0.80;;;;;;;22.87;51.02;99572.00;4451249;32;34666;-83
2021/07/07 01:39:24;;;;;;;3.85;1.23;;;;;;;22.99;50.39;99570.16;4438560;32;33378;-83
2021/07/07 01:41:52;;;;;;;1.10;0.95;;;;;;;22.65;51.84;99578.94;4451574;32;33743;-83
2021/07/07 01:44:23;;;;;;;1.33;1.25;;;;;;;22.94;50.61;99572.72;4438830;32;35013;-81
2021/07/07 01:46:51;;;;;;;1.50;1.40;;;;;;;22.68;51.51;99577.66;4425157;32;34738;-85
2021/07/07 01:49:19;;;;;;;1.52;1.42;;;;;;;22.52;52.13;99581.81;4438067;32;33921;-82
2021/07/07 01:51:47;;;;;;;2.33;1.15;;;;;;;22.38;53.58;99592.97;4451280;32;34639;-84
2021/07/07 01:54:15;;;;;;;2.25;1.23;;;;;;;22.61;52.05;99590.44;4451231;32;34934;-84
2021/07/07 01:56:42;;;;;;;1.35;1.23;;;;;;;22.42;53.02;99589.63;4438533;32;34636;-86
2021/07/07 01:59:10;;;;;;;1.33;1.10;;;;;;;22.44;52.53;99595.66;4438132;32;34222;-84
2021/07/07 02:01:39;;;;;;;1.52;1.23;;;;;;;22.53;52.13;99597.00;4451204;32;34412;-84
2021/07/07 02:04:06;;;;;;;2.08;1.45;;;;;;;22.32;53.14;99596.56;4450851;32;34722;-83
2021/07/07 02:06:35;;;;;;;2.67;1.15;;;;;;;22.56;52.38;99599.25;4425159;32;32887;-85
2021/07/07 02:09:04;;;;;;;1.55;1.02;;;;;;;22.72;51.26;99597.81;4450803;32;33087;-83
2021/07/07 02:11:34;;;;;;;1.00;0.93;;;;;;;22.62;51.62;99600.25;4438096;32;33391;-83
2021/07/07 02:14:03;;;;;;;2.15;1.52;;;;;;;22.39;52.75;99600.06;4438181;32;35169;-83
2021/07/07 02:16:31;;;;;;;1.50;1.40;;;;;;;22.44;52.63;99598.38;4450436;32;34797;-83
2021/07/07 02:18:59;;;;;;;1.50;1.15;;;;;;;22.29;53.48;99592.44;4438024;32;33195;-84
2021/07/07 02:21:27;;;;;;;1.80;1.70;;;;;;;22.29;53.67;99597.03;4437931;32;33131;-81
2021/07/07 02:23:55;;;;;;;2.30;1.30;;;;;;;22.33;53.43;99595.53;4450956;32;35668;-83
2021/07/07 02:26:24;;;;;;;0.98;0.85;;;;;;;22.41;52.75;99595.25;4450516;32;34269;-83
2021/07/07 02:28:51;;;;;;;;;;;;;;;22.38;53.31;99598.41;4450782;32;32756;-83
2021/07/07 02:31:19;;;;;;;;;;;;;;;22.29;54.32;99594.31;4437876;32;34239;-83
2021/07/07 02:33:46;;;;;;;1.30;1.17;;;;;;;22.57;52.43;99592.78;4437824;32;35239;-82
2021/07/07 02:36:14;;;;;;;1.20;1.10;;;;;;;22.28;53.44;99598.91;4450554;32;34463;-83
2021/07/07 02:38:42;;;;;;;0.85;0.57;;;;;;;22.26;54.01;99592.03;4424905;32;31967;-83
2021/07/07 02:41:10;;;;;;;0.90;0.90;;;;;;;22.34;53.55;99595.31;4450339;32;33897;-83
2021/07/07 02:43:39;;;;;;;1.33;1.23;;;;;;;22.35;53.12;99599.66;4450287;32;35922;-83
2021/07/07 02:46:07;;;;;;;1.52;1.15;;;;;;;22.35;53.04;99601.53;4437608;32;33950;-83
2021/07/07 02:48:36;;;;;;;1.50;1.40;;;;;;;22.43;52.38;99602.13;4436997;32;32399;-83
2021/07/07 02:51:04;;;;;;;1.40;1.30;;;;;;;22.57;51.55;99608.25;4424316;32;33247;-85
2021/07/07 02:53:31;;;;;;;3.05;1.75;;;;;;;22.40;52.44;99604.41;4424655;32;36101;-83
2021/07/07 02:55:59;;;;;;;1.75;1.12;;;;;;;22.29;52.95;99608.69;4450349;32;34008;-82
2021/07/07 02:58:27;;;;;;;5.03;1.20;;;;;;;22.16;53.40;99600.69;4437410;32;33325;-83
2021/07/07 03:00:54;;;;;;;2.60;1.27;;;;;;;22.21;53.30;99602.75;4450003;32;33495;-83
2021/07/07 03:03:25;;;;;;;1.65;1.50;;;;;;;22.24;53.26;99607.69;4437468;32;35701;-83
2021/07/07 03:05:57;;;;;;;1.55;1.45;;;;;;;22.32;52.72;99607.41;4451238;32;33970;-83
2021/07/07 03:08:27;;;;;;;0.98;0.98;;;;;;;22.11;53.45;99605.94;4439561;32;32910;-83
2021/07/07 03:10:55;;;;;;;0.90;0.90;;;;;;;22.17;53.90;99613.19;4439371;32;34283;-83
2021/07/07 03:13:25;;;;;;;1.60;1.42;;;;;;;22.06;54.14;99615.78;4439809;32;34851;-84
2021/07/07 03:15:53;;;;;;;2.58;1.62;;;;;;;22.32;53.10;99608.25;4453750;32;34825;-84
2021/07/07 03:18:22;;;;;;;0.90;0.50;;;;;;;22.46;52.21;99617.12;4439789;32;32993;-83
2021/07/07 03:20:51;;;;;;;4.70;1.20;;;;;;;22.17;53.57;99625.94;4452528;32;33511;-83
2021/07/07 03:23:20;;;;;;;1.55;1.27;;;;;;;21.99;54.12;99623.16;4439570;32;34607;-82
2021/07/07 03:25:49;;;;;;;3.50;1.58;;;;;;;22.30;52.81;99631.22;4452081;32;34000;-83
2021/07/07 03:28:19;;;;;;;1.80;1.12;;;;;;;22.10;53.41;99623.25;4452232;32;34114;-83
2021/07/07 03:30:47;;;;;;;1.52;1.30;;;;;;;22.00;53.63;99624.81;4439340;32;34137;-83
2021/07/07 03:33:15;;;;;;;;;;;;;;;21.98;53.60;99626.91;4440067;32;35264;-83
2021/07/07 03:35:43;;;;;;;2.72;1.58;;;;;;;21.99;54.48;99632.09;4439459;32;35452;-83
2021/07/07 03:38:11;;;;;;;1.30;1.20;;;;;;;22.10;54.25;99627.87;4439173;32;33099;-84
2021/07/07 03:40:39;;;;;;;1.17;0.90;;;;;;;22.12;54.61;99631.16;4452302;32;33230;-82
2021/07/07 03:43:07;;;;;;;1.40;1.05;;;;;;;22.14;54.33;99637.19;4439473;32;34768;-83
2021/07/07 03:45:35;;;;;;;1.55;1.45;;;;;;;22.01;54.55;99645.44;4426389;32;33746;-83
2021/07/07 03:48:07;;;;;;;2.03;1.17;;;;;;;22.19;54.17;99651.72;4439228;32;32489;-81
2021/07/07 03:50:37;;;;;;;1.50;1.12;;;;;;;22.10;54.44;99653.06;4439957;32;34673;-82
2021/07/07 03:53:06;;;;;;;4.10;0.95;;;;;;;21.98;55.11;99651.28;4439039;32;35800;-84
2021/07/07 03:55:34;;;;;;;1.48;1.35;;;;;;;22.27;53.97;99656.06;4452126;32;35605;-83
2021/07/07 03:58:04;;;;;;;1.42;1.30;;;;;;;22.28;54.40;99650.41;4439046;32;32781;-82
2021/07/07 04:00:32;;;;;;;8.57;1.33;;;;;;;22.12;55.83;99650.97;4452168;32;33811;-80
2021/07/07 04:03:00;;;;;;;2.65;1.67;;;;;;;22.04;56.40;99658.53;4452507;32;34708;-83
2021/07/07 04:05:28;;;;;;;2.12;1.33;;;;;;;22.34;55.48;99659.53;4453155;32;34404;-83
2021/07/07 04:07:56;;;;;;;2.03;1.48;;;;;;;22.40;55.59;99656.81;4439326;32;33168;-83
2021/07/07 04:10:25;;;;;;;2.28;1.73;;;;;;;22.53;54.86;99662.09;4439324;32;34995;-83
2021/07/07 04:12:53;;;;;;;1.85;1.37;;;;;;;22.59;54.63;99654.94;4453231;32;34992;-83
2021/07/07 04:15:21;;;;;;;1.98;1.77;;;;;;;22.56;54.86;99655.41;4439267;32;34895;-83
2021/07/07 04:17:49;;;;;;;1.70;1.17;;;;;;;22.56;54.92;99649.97;4439032;32;33230;-82
2021/07/07 04:20:19;;;;;;;1.30;1.12;;;;;;;22.81;53.99;99657.00;4439282;32;33717;-83
2021/07/07 04:22:50;;;;;;;1.85;1.00;;;;;;;22.73;54.57;99660.00;4439034;32;34834;-83
2021/07/07 04:25:19;;;;;;;2.70;1.52;;;;;;;22.76;54.21;99656.81;4439073;32;34923;-83
2021/07/07 04:27:47;;;;;;;1.50;1.42;;;;;;;23.07;52.94;99653.13;4452038;32;33226;-83
2021/07/07 04:30:18;;;;;;;2.12;1.62;;;;;;;22.89;53.42;99658.56;4451884;32;34287;-83
2021/07/07 04:32:47;;;;;;;2.67;2.17;;;;;;;22.79;53.77;99659.09;4439371;32;35713;-83
2021/07/07 04:35:17;;;;;;;2.62;2.12;;;;;;;22.82;54.33;99664.06;4439356;32;35232;-83
2021/07/07 04:37:46;;;;;;;1.50;1.30;;;;;;;23.15;53.45;99664.56;4426309;32;33344;-83
2021/07/07 04:40:16;;;;;;;2.37;1.92;;;;;;;23.36;52.92;99658.63;4439411;32;33170;-83
2021/07/07 04:42:43;;;;;;;2.45;2.15;;;;;;;23.51;52.67;99664.47;4438874;32;35866;-82
2021/07/07 04:45:11;;;;;;;3.60;1.10;;;;;;;23.66;52.42;99664.06;4438699;32;34233;-83
2021/07/07 04:47:39;;;;;;;7.10;2.17;;;;;;;23.75;52.32;99663.50;4439182;32;32763;-82
2021/07/07 04:50:10;;;;;;;1.90;1.48;;;;;;;23.83;52.08;99655.84;4438536;32;33262;-83
2021/07/07 04:52:39;;;;;;;4.55;1.58;;;;;;;23.87;52.14;99661.66;4451668;32;34397;-83
2021/07/07 04:55:09;;;;;;;1.48;1.37;;;;;;;23.90;51.85;99661.22;4439243;32;35151;-83
2021/07/07 04:57:40;;;;;;;2.20;1.40;;;;;;;23.73;51.95;99672.94;4439172;32;33483;-83
2021/07/07 05:00:20;;;;;;;1.95;1.40;;;;;;;24.06;50.95;99666.81;4439491;32;33634;-83
2021/07/07 05:02:49;;;;;;;1.58;1.23;;;;;;;24.21;50.88;99663.63;4438995;32;35262;-83
2021/07/07 05:05:20;;;;;;;1.50;1.30;;;;;;;24.22;51.25;99668.00;4451347;32;34944;-84
2021/07/07 05:07:48;;;;;;;2.67;1.30;;;;;;;24.42;50.83;99666.63;4439215;32;32829;-84
2021/07/07 05:10:17;;;;;;;2.80;1.95;;;;;;;24.52;50.89;99666.84;4426060;32;33174;-85
2021/07/07 05:12:45;;;;;;;6.03;1.73;;;;;;;24.56;50.80;99667.25;4451501;32;35726;-84
2021/07/07 05:15:14;;;;;;;1.27;1.15;;;;;;;24.64;49.85;99669.59;4451780;32;35086;-83
2021/07/07 05:17:43;;;;;;;2.03;1.52;;;;;;;24.70;50.06;99674.06;4438879;32;34439;-82
2021/07/07 05:20:12;;;;;;;1.83;1.73;;;;;;;24.74;49.87;99667.94;4439068;32;33586;-84
2021/07/07 05:22:41;;;;;;;1.73;1.60;;;;;;;25.02;50.12;99676.16;4438608;32;34931;-83
2021/07/07 05:25:11;;;;;;;1.65;1.00;;;;;;;25.29;49.62;99674.59;4451346;32;34322;-84
2021/07/07 05:27:39;;;;;;;2.35;1.65;;;;;;;25.37;49.86;99685.12;4438231;32;33676;-84
2021/07/07 05:30:06;;;;;;;;;;;;;;;25.60;49.39;99676.03;4453001;32;34554;-83
2021/07/07 05:32:35;;;;;;;1.12;1.02;;;;;;;25.87;49.33;99685.28;4438989;32;34784;-83
2021/07/07 05:35:06;;;;;;;1.52;1.42;;;;;;;25.80;49.18;99677.25;4451316;32;33954;-84
2021/07/07 05:37:33;;;;;;;2.28;1.62;;;;;;;25.95;48.58;99677.53;4425610;32;32418;-84
2021/07/07 05:40:02;;;;;;;3.05;1.50;;;;;;;26.18;48.27;99679.28;4452683;32;33197;-83
2021/07/07 05:42:30;;;;;;;2.58;1.52;;;;;;;26.31;47.89;99679.78;4438021;32;33517;-83
2021/07/07 05:44:58;;;;;;;2.60;1.65;;;;;;;26.36;47.59;99682.63;4452615;32;34083;-83
2021/07/07 05:47:26;;;;;;;1.70;1.45;;;;;;;26.47;47.39;99692.59;4438509;32;33369;-83
2021/07/07 05:49:56;;;;;;;1.15;1.00;;;;;;;26.71;46.92;99693.28;4451636;32;33169;-84
2021/07/07 05:52:24;;;;;;;5.22;2.30;;;;;;;26.83;46.91;99694.84;4439013;32;34799;-84
2021/07/07 05:54:55;;;;;;;2.25;1.65;;;;;;;26.76;46.57;99698.78;4438700;32;35023;-84
2021/07/07 05:57:39;;;;;;;2.95;1.70;;;;;;;26.75;47.18;99703.44;4425509;32;32274;-84
2021/07/07 06:00:12;;;;;;;2.85;1.95;;;;;;;27.17;46.35;99699.97;4427299;32;33116;-82
2021/07/07 06:02:42;;;;;;;1.67;1.58;;;;;;;27.26;45.51;99703.09;4452220;32;34920;-85
2021/07/07 06:05:11;;;;;;;1.45;1.02;;;;;;;27.44;44.76;99706.34;4450881;32;34042;-85
2021/07/07 06:07:39;;;;;;;1.83;1.15;;;;;;;27.44;45.18;99700.03;4450591;32;35432;-78
2021/07/07 06:10:09;;;;;;;1.95;1.70;;;;;;;27.53;44.50;99699.34;4450777;32;33879;-83
2021/07/07 06:12:38;;;;;;;2.25;1.50;;;;;;;27.84;43.10;99706.03;4438246;32;35499;-76
2021/07/07 06:15:07;;;;;;;2.78;2.15;;;;;;;27.91;42.45;99709.34;4450559;32;34359;-85
2021/07/07 06:17:36;;;;;;;3.12;2.12;;;;;;;28.23;42.04;99718.44;4450612;32;33727;-85
2021/07/07 06:20:05;;;;;;;1.92;1.75;;;;;;;28.06;42.08;99715.78;4451798;32;33798;-76
2021/07/07 06:22:33;;;;;;;1.98;1.80;;;;;;;28.20;41.28;99718.94;4450603;32;35175;-84
2021/07/07 06:25:02;;;;;;;1.45;1.10;;;;;;;28.63;40.73;99719.63;4438073;32;35156;-82
2021/07/07 06:27:29;;;;;;;4.03;2.60;;;;;;;28.69;39.66;99721.28;4450865;32;33764;-86
2021/07/07 06:29:57;;;;;;;2.15;1.95;;;;;;;28.50;40.48;99722.00;4438376;32;33716;-86
2021/07/07 06:32:25;;;;;;;1.73;1.62;;;;;;;28.75;40.58;99717.53;4450649;32;36098;-84
2021/07/07 06:34:58;;;;;;;1.95;1.45;;;;;;;28.99;39.33;99724.25;4438119;32;34573;-82
2021/07/07 06:37:26;;;;;;;13.30;1.62;;;;;;;28.86;39.31;99724.72;4453252;32;33790;-84
2021/07/07 06:39:53;;;;;;;1.40;1.30;;;;;;;29.12;39.70;99723.81;4441322;32;34423;-84
2021/07/07 06:42:22;;;;;;;2.53;2.33;;;;;;;29.35;39.97;99725.31;4442969;32;35134;-84
2021/07/07 06:44:50;;;;;;;2.17;1.65;;;;;;;29.22;39.42;99731.25;4455257;32;34139;-86
2021/07/07 06:47:19;;;;;;;3.33;1.92;;;;;;;29.26;39.40;99735.13;4455310;32;33176;-86
2021/07/07 06:49:47;;;;;;;2.10;1.77;;;;;;;29.54;38.93;99741.03;4469277;32;34434;-82
2021/07/07 06:52:16;;;;;;;1.92;1.40;;;;;;;29.83;38.23;99724.97;4455126;32;33485;-83
2021/07/07 06:54:46;;;;;;;2.03;1.70;;;;;;;29.61;38.91;99725.16;4454832;32;33286;-84
2021/07/07 06:57:13;;;;;;;2.15;1.83;;;;;;;29.72;38.25;99726.84;4455444;32;33501;-78
2021/07/07 06:59:41;;;;;;;1.58;1.45;;;;;;;29.95;38.30;99729.13;4469098;32;34632;-84
2021/07/07 07:02:10;;;;;;;2.10;1.98;;;;;;;30.25;37.72;99720.94;4442717;32;33522;-81
2021/07/07 07:04:38;;;;;;;2.53;1.92;;;;;;;30.04;37.93;99732.13;4455301;32;34373;-87
2021/07/07 07:07:06;;;;;;;1.65;1.55;;;;;;;30.22;37.52;99731.66;4455098;32;33325;-83
2021/07/07 07:09:34;;;;;;;1.90;1.67;;;;;;;30.25;37.58;99725.59;4442343;32;32750;-84
2021/07/07 07:12:02;;;;;;;4.55;1.55;;;;;;;30.56;37.12;99726.19;4429028;32;34081;-84
2021/07/07 07:14:30;;;;;;;1.67;1.45;;;;;;;30.76;37.05;99734.44;4455133;32;33566;-84
2021/07/07 07:16:58;;;;;;;1.87;1.65;;;;;;;30.64;37.04;99730.31;4455081;32;33831;-80
2021/07/07 07:19:26;;;;;;;2.75;2.42;;;;;;;30.85;36.91;99727.28;4469003;32;33750;-85
2021/07/07 07:21:55;;;;;;;2.22;2.03;;;;;;;30.88;36.55;99729.47;4430118;32;33947;-85
2021/07/07 07:24:30;;;;;;;2.17;1.95;;;;;;;30.95;36.65;99726.47;4455106;32;34349;-84
2021/07/07 07:26:58;;;;;;;2.45;2.25;;;;;;;31.04;36.68;99725.59;4455949;32;33989;-80
2021/07/07 07:29:26;;;;;;;2.65;1.80;;;;;;;31.19;35.95;99739.34;4469361;32;33566;-84
2021/07/07 07:31:54;;;;;;;1.48;1.37;;;;;;;31.47;34.84;99726.87;4454735;32;35159;-79
2021/07/07 07:34:22;;;;;;;1.95;1.85;;;;;;;31.54;35.70;99728.19;4469241;32;34801;-84
2021/07/07 07:36:53;;;;;;;2.40;2.20;;;;;;;31.73;35.77;99729.25;4442005;32;32318;-85
2021/07/07 07:39:24;;;;;;;2.15;1.95;;;;;;;31.66;35.41;99723.22;4452328;32;34579;-81
2021/07/07 07:41:51;;;;;;;2.17;1.85;;;;;;;32.02;33.60;99724.69;4453327;32;35772;-79
2021/07/07 07:44:19;;;;;;;1.90;1.77;;;;;;;31.94;34.21;99727.22;4452044;32;33789;-83
2021/07/07 07:46:49;;;;;;;2.62;2.42;;;;;;;31.97;33.37;99729.38;4439216;32;32234;-85
2021/07/07 07:49:17;;;;;;;1.90;1.80;;;;;;;31.79;33.71;99724.56;4452049;32;34006;-77
2021/07/07 07:51:45;;;;;;;2.62;2.42;;;;;;;31.87;34.38;99722.03;4451942;32;34791;-83
2021/07/07 07:54:14;;;;;;;3.12;2.17;;;;;;;31.77;33.53;99729.50;4452031;32;33943;-80
2021/07/07 07:56:41;;;;;;;3.33;3.03;;;;;;;31.83;33.49;99725.63;4453365;32;34066;-81
2021/07/07 07:59:09;;;;;;;1.67;1.58;;;;;;;32.07;33.57;99729.34;4452220;32;33732;-83
2021/07/07 08:01:37;;;;;;;3.62;2.05;;;;;;;32.38;33.30;99739.88;4452213;32;35062;-80
2021/07/07 08:04:05;;;;;;;2.30;2.10;;;;;;;32.33;32.88;99728.06;4453465;32;34423;-78
2021/07/07 08:06:34;;;;;;;2.60;2.40;;;;;;;32.07;33.02;99727.41;4453246;32;33461;-88
2021/07/07 08:09:03;;;;;;;2.40;2.08;;;;;;;32.39;32.51;99733.28;4439367;32;33808;-81
2021/07/07 08:11:31;;;;;;;4.35;2.05;;;;;;;32.34;32.65;99733.31;4452127;32;35952;-83
2021/07/07 08:14:00;;;;;;;3.22;2.97;;;;;;;32.34;32.64;99733.31;4453344;32;33883;-82
2021/07/07 08:16:28;;;;;;;4.18;3.00;;;;;;;32.52;31.56;99727.09;4426240;32;32202;-85
2021/07/07 08:18:56;;;;;;;5.53;1.73;;;;;;;32.78;32.33;99730.47;4439337;32;33583;-84
2021/07/07 08:21:24;;;;;;;2.22;2.03;;;;;;;32.70;31.44;99733.81;4451981;32;34979;-82
2021/07/07 08:23:51;;;;;;;2.72;2.53;;;;;;;32.42;32.12;99734.63;4452005;32;34689;-86
2021/07/07 08:26:20;;;;;;;2.97;2.55;;;;;;;32.88;32.29;99741.41;4451759;32;32435;-86
2021/07/07 08:28:48;;;;;;;3.53;2.42;;;;;;;33.07;31.81;99731.28;4438846;32;33136;-84
2021/07/07 08:31:15;;;;;;;2.12;1.98;;;;;;;33.25;31.35;99728.66;4453031;32;36536;-78
2021/07/07 08:33:43;;;;;;;2.92;2.62;;;;;;;32.76;31.28;99736.31;4451739;32;34945;-85
2021/07/07 08:36:11;;;;;;;2.45;1.70;;;;;;;33.26;30.63;99735.81;4451412;32;32341;-84
2021/07/07 08:38:39;;;;;;;2.20;2.00;;;;;;;33.63;30.41;99744.19;4463916;32;33783;-86
2021/07/07 08:41:08;;;;;;;5.65;3.00;;;;;;;33.39;30.97;99737.03;4454914;32;35185;-84
2021/07/07 08:43:36;;;;;;;2.30;2.17;;;;;;;33.80;29.50;99740.94;4454844;32;34391;-87
2021/07/07 08:46:03;;;;;;;6.20;2.53;;;;;;;33.80;30.03;99738.19;4441562;32;32214;-84
2021/07/07 08:48:33;;;;;;;2.25;2.10;;;;;;;32.64;30.85;99744.06;4441939;32;33122;-83
2021/07/07 08:51:02;;;;;;;2.50;2.30;;;;;;;33.42;30.36;99741.97;4441577;32;36999;-86
2021/07/07 08:53:31;;;;;;;3.45;2.33;;;;;;;34.04;30.05;99739.78;4454646;32;33247;-83
2021/07/07 08:55:58;;;;;;;1.77;1.60;;;;;;;33.69;29.83;99736.66;4453989;32;34492;-86
2021/07/07 08:58:28;;;;;;;3.08;2.87;;;;;;;33.81;30.23;99748.94;4441672;32;33809;-85
2021/07/07 09:00:58;;;;;;;4.03;2.50;;;;;;;33.89;30.25;99751.06;4441356;32;34865;-81
2021/07/07 09:03:26;;;;;;;2.53;1.83;;;;;;;33.53;29.22;99744.31;4467660;32;34957;-79
2021/07/07 09:06:01;;;;;;;3.20;2.05;;;;;;;33.29;28.81;99740.72;4454604;32;34064;-80
2021/07/07 09:08:35;;;;;;;2.37;2.17;;;;;;;33.36;28.24;99745.88;4454719;32;34647;-83
2021/07/07 09:11:28;;;;;;;2.78;1.62;;;;;;;33.30;28.95;99741.56;4454480;32;35935;-87
2021/07/07 09:14:12;;;;;;;2.58;2.05;;;;;;;33.40;29.01;99746.97;4442561;32;34322;-81
2021/07/07 09:16:52;;;;;;;3.87;2.67;;;;;;;33.69;28.08;99744.94;4454522;32;33356;-86
2021/07/07 09:19:23;;;;;;;2.40;2.22;;;;;;;33.76;28.22;99740.72;4455001;32;34078;-84
2021/07/07 09:21:54;;;;;;;2.45;2.25;;;;;;;34.05;28.30;99747.78;4416107;32;33709;-82
2021/07/07 09:24:25;;;;;;;4.62;2.33;;;;;;;34.34;27.91;99747.63;4454560;32;34896;-83
2021/07/07 09:27:02;;;;;;;2.10;1.90;;;;;;;34.21;27.30;99759.41;4454375;32;33696;-82
2021/07/07 09:29:41;;;;;;;3.42;2.45;;;;;;;34.60;27.34;99751.63;4454501;32;33476;-85
2021/07/07 09:32:10;;;;;;;2.85;2.65;;;;;;;34.57;27.26;99747.56;4441172;32;33368;-80
2021/07/07 09:34:39;;;;;;;3.85;2.30;;;;;;;34.55;27.41;99748.97;4454438;32;34898;-84
2021/07/07 09:37:20;;;;;;;2.55;2.35;;;;;;;34.34;28.22;99742.94;4453902;32;34064;-86
2021/07/07 09:39:50;;;;;;;17.35;2.22;;;;;;;35.12;26.40;99760.41;4454511;32;34181;-86
2021/07/07 09:42:29;;;;;;;2.05;1.90;;;;;;;34.77;27.26;99749.16;4468146;32;35010;-81
2021/07/07 09:44:59;;;;;;;2.25;2.05;;;;;;;34.42;27.01;99744.19;4441672;32;413028;-86
2021/07/07 09:47:28;;;;;;;2.72;2.40;;;;;;;34.77;27.40;99750.00;4442040;32;33419;-88
2021/07/07 09:49:58;;;;;;;3.40;1.95;;;;;;;34.96;27.22;99752.69;4441737;32;34100;-87
2021/07/07 09:52:28;;;;;;;4.55;2.58;;;;;;;35.14;27.28;99737.97;4454388;32;35723;-86
2021/07/07 09:54:57;;;;;;;2.78;2.25;;;;;;;34.52;27.74;99741.25;4440939;32;32906;-84
2021/07/07 09:57:25;;;;;;;3.37;2.70;;;;;;;34.65;27.83;99744.06;4441454;32;32971;-79
2021/07/07 09:59:53;;;;;;;2.12;2.03;;;;;;;34.83;27.74;99740.47;4468286;32;34381;-88
2021/07/07 10:02:21;;;;;;;2.05;1.83;;;;;;;34.77;27.29;99750.00;4441238;32;36454;-79
2021/07/07 10:04:51;;;;;;;3.97;2.87;;;;;;;34.62;26.46;99741.94;4468017;32;35212;-82
2021/07/07 10:07:19;;;;;;;2.08;1.98;;;;;;;34.54;27.29;99739.03;4428570;32;32413;-78
2021/07/07 10:09:49;;;;;;;2.25;2.05;;;;;;;34.77;26.49;99746.41;4440588;32;33184;-88
2021/07/07 10:12:20;;;;;;;2.58;2.37;;;;;;;35.18;27.15;99739.88;4441846;32;35739;-83
2021/07/07 10:14:47;;;;;;;1.95;1.62;;;;;;;35.03;26.03;99739.31;4467944;32;34536;-84
2021/07/07 10:17:15;;;;;;;4.43;2.08;;;;;;;34.88;26.09;99740.41;4440971;32;34040;-86
2021/07/07 10:19:45;;;;;;;2.25;2.05;;;;;;;35.73;26.34;99740.69;4441453;32;34243;-84
2021/07/07 10:22:13;;;;;;;2.70;2.50;;;;;;;36.20;25.47;99732.75;4453786;32;35798;-87
2021/07/07 10:24:42;;;;;;;5.68;2.80;;;;;;;36.45;24.50;99736.84;4441013;32;34184;-84
2021/07/07 10:27:11;;;;;;;2.33;2.08;;;;;;;37.02;23.75;99730.41;4441232;32;33866;-83
2021/07/07 10:29:39;;;;;;;2.28;2.12;;;;;;;36.78;22.66;99727.97;4453528;32;34185;-83
2021/07/07 10:32:07;;;;;;;2.22;2.05;;;;;;;37.33;23.01;99740.38;4453824;32;34830;-85
2021/07/07 10:34:37;;;;;;;1.87;1.75;;;;;;;37.59;22.33;99727.44;4453448;32;35059;-83
2021/07/07 10:37:04;;;;;;;2.28;2.08;;;;;;;37.41;21.37;99734.06;4453283;32;32289;-89
2021/07/07 10:39:33;;;;;;;2.25;2.00;;;;;;;37.52;20.58;99729.88;4440444;32;34691;-83
2021/07/07 10:42:03;;;;;;;2.15;2.05;;;;;;;38.53;21.14;99726.47;4440580;32;35013;-83
2021/07/07 10:44:40;;;;;;;2.03;1.83;;;;;;;38.74;20.81;99724.63;4467323;32;34786;-86
2021/07/07 10:47:18;;;;;;;2.10;1.98;;;;;;;38.19;20.66;99722.81;4467471;32;33245;-84
2021/07/07 10:49:49;;;;;;;3.12;2.92;;;;;;;38.22;21.56;99720.22;4428126;32;33937;-87
2021/07/07 10:52:43;;;;;;;2.25;2.05;;;;;;;38.82;19.82;99709.91;4427962;32;35357;-87
2021/07/07 10:55:15;;;;;;;3.47;1.98;;;;;;;39.57;19.98;99717.47;4440758;32;32961;-85
2021/07/07 10:57:46;;;;;;;3.33;2.12;;;;;;;40.17;19.73;99717.97;4440264;32;33240;-84
2021/07/07 11:00:35;;;;;;;2.83;2.50;;;;;;;39.66;19.58;99709.94;4453654;32;34430;-85
2021/07/07 11:03:31;;;;;;;1.55;1.45;;;;;;;40.01;19.26;99711.34;4454309;32;34985;-87
2021/07/07 11:06:20;;;;;;;2.25;2.05;;;;;;;40.18;19.84;99714.03;4452517;32;33497;-83
2021/07/07 11:08:50;;;;;;;2.08;1.92;;;;;;;41.14;18.30;99712.44;4440245;32;32332;-85
2021/07/07 11:11:24;;;;;;;2.62;2.42;;;;;;;41.16;18.17;99707.31;4452314;32;32315;-86
2021/07/07 11:13:55;;;;;;;3.28;2.53;;;;;;;40.08;19.39;99706.88;4441022;32;35215;-88
2021/07/07 11:16:29;;;;;;;1.87;1.75;;;;;;;40.58;18.70;99704.81;4467275;32;34696;-82
2021/07/07 11:18:57;;;;;;;1.73;1.60;;;;;;;40.42;18.35;99703.78;4467079;32;34716;-80
2021/07/07 11:21:30;;;;;;;2.00;1.85;;;;;;;38.49;20.01;99708.78;4453023;32;32673;-88
2021/07/07 11:24:06;;;;;;;2.30;2.10;;;;;;;39.48;19.10;99709.19;4454033;32;34971;-86
2021/07/07 11:26:36;;;;;;;1.58;1.48;;;;;;;38.20;20.02;99714.16;4468274;32;34273;-86
2021/07/07 11:29:05;;;;;;;1.98;1.52;;;;;;;39.14;19.59;99716.84;4455402;32;32495;-88
2021/07/07 11:31:35;;;;;;;4.87;1.83;;;;;;;40.03;18.99;99718.22;4455823;32;33141;-90
2021/07/07 11:34:04;;;;;;;1.92;1.83;;;;;;;40.48;17.94;99708.00;4455253;32;33939;-82
2021/07/07 11:36:33;;;;;;;1.73;1.62;;;;;;;39.24;17.43;99705.38;4455604;32;35298;-86
2021/07/07 11:39:06;;;;;;;2.30;2.08;;;;;;;39.86;17.96;99706.34;4440455;32;32628;-88
2021/07/07 11:41:34;;;;;;;2.50;1.62;;;;;;;40.82;16.19;99707.69;4440433;32;33794;-91
2021/07/07 11:44:03;;;;;;;2.15;1.70;;;;;;;40.49;16.80;99697.69;4440115;32;36010;-84